Time;durP1;ratioP1;P1;durP2;ratioP2;P2;SDS_P1;SDS_P2;PMS_P1;PMS_P2;Temp;Humidity;BMP_temperature;BMP_pressure;BME280_temperature;BME280_humidity;BME280_pressure;Samples;Min_cycle;Max_cycle;Signal;HPM_P1;HPM_P2
2022/04/14 00:02:02;;;;;;;53.80;22.30;;;;;;;9.19;100.00;102033.72;5206103;28;20558;-74
2022/04/14 00:04:35;;;;;;;46.75;21.35;;;;;;;9.22;100.00;102036.09;5205321;28;20045;-74
2022/04/14 00:07:05;;;;;;;63.40;23.75;;;;;;;9.18;100.00;102040.00;5206357;28;20088;-74
2022/04/14 00:09:36;;;;;;;91.15;26.13;;;;;;;9.11;100.00;102029.97;5205833;28;20045;-74
2022/04/14 00:12:07;;;;;;;176.98;30.42;;;;;;;9.06;100.00;102033.88;5205877;28;20108;-73
2022/04/14 00:14:38;;;;;;;155.98;27.38;;;;;;;9.02;100.00;102031.56;5205744;28;20029;-74
2022/04/14 00:17:09;;;;;;;125.32;26.10;;;;;;;8.96;100.00;102027.56;5205617;28;20503;-73
2022/04/14 00:19:40;;;;;;;68.75;22.92;;;;;;;8.89;100.00;102030.91;5204647;28;20094;-73
2022/04/14 00:22:10;;;;;;;63.75;24.63;;;;;;;8.86;100.00;102036.50;5205738;28;20018;-73
2022/04/14 00:24:41;;;;;;;41.85;19.58;;;;;;;8.70;100.00;102032.41;5205872;28;20029;-73
2022/04/14 00:27:11;;;;;;;75.00;22.33;;;;;;;8.65;100.00;102031.06;5206145;28;20025;-74
2022/04/14 00:29:42;;;;;;;56.80;23.10;;;;;;;8.62;100.00;102031.31;5205515;28;20018;-75
2022/04/14 00:32:13;;;;;;;105.95;25.13;;;;;;;8.64;100.00;102024.03;5205409;28;20140;-74
2022/04/14 00:34:43;;;;;;;118.63;26.13;;;;;;;8.67;100.00;102024.63;5202888;28;20035;-74
2022/04/14 00:37:17;;;;;;;98.40;24.45;;;;;;;8.67;100.00;102029.13;5196778;28;20467;-74
2022/04/14 00:39:49;;;;;;;191.02;29.50;;;;;;;8.67;100.00;102027.28;5204938;28;20061;-73
2022/04/14 00:42:19;;;;;;;195.65;31.42;;;;;;;8.71;100.00;102026.06;5205171;28;20769;-74
2022/04/14 00:44:50;;;;;;;134.25;32.40;;;;;;;8.73;100.00;102031.28;5205262;28;20021;-74
2022/04/14 00:47:21;;;;;;;110.85;26.02;;;;;;;8.73;100.00;102036.63;5205560;28;20025;-72
2022/04/14 00:49:52;;;;;;;205.15;29.17;;;;;;;8.73;100.00;102021.44;5205092;28;20064;-72
2022/04/14 00:52:22;;;;;;;246.82;32.03;;;;;;;8.68;100.00;102018.28;5204696;28;20054;-73
2022/04/14 00:54:53;;;;;;;174.25;24.33;;;;;;;8.61;100.00;102016.25;5205021;28;20087;-74
2022/04/14 00:57:24;;;;;;;85.90;21.70;;;;;;;8.53;100.00;102008.81;5204992;28;20029;-74
2022/04/14 00:59:54;;;;;;;47.15;23.50;;;;;;;8.52;100.00;102005.31;5204908;28;20053;-74
2022/04/14 01:02:25;;;;;;;63.90;24.58;;;;;;;8.55;100.00;102012.25;5205207;28;20013;-74
2022/04/14 01:04:55;;;;;;;44.47;24.45;;;;;;;8.55;100.00;102014.94;5205062;28;20030;-74
2022/04/14 01:07:37;;;;;;;77.35;28.38;;;;;;;8.57;100.00;102011.13;5206870;28;20033;-73
2022/04/14 01:10:08;;;;;;;85.05;24.08;;;;;;;8.57;100.00;102013.81;5204805;28;20048;-74
2022/04/14 01:12:38;;;;;;;53.75;22.15;;;;;;;8.52;100.00;102016.00;5203585;28;20017;-74
2022/04/14 01:15:20;;;;;;;43.78;21.65;;;;;;;8.51;100.00;102025.00;5205082;28;20466;-73
2022/04/14 01:18:02;;;;;;;46.92;26.30;;;;;;;8.59;100.00;102021.72;5204885;28;20025;-72
2022/04/14 01:20:43;;;;;;;51.15;27.58;;;;;;;8.65;100.00;102020.38;5204976;28;20029;-73
2022/04/14 01:23:20;;;;;;;49.40;26.08;;;;;;;8.68;100.00;102022.78;5205459;28;20087;-73
2022/04/14 01:25:55;;;;;;;43.15;25.92;;;;;;;8.70;100.00;102023.53;5204373;28;20052;-73
2022/04/14 01:28:26;;;;;;;49.55;25.65;;;;;;;8.71;100.00;102022.53;5204819;28;20021;-72
2022/04/14 01:31:08;;;;;;;51.47;28.73;;;;;;;8.68;100.00;102015.59;5204277;28;20021;-73
2022/04/14 01:33:39;;;;;;;41.55;22.98;;;;;;;8.59;100.00;102011.03;5203553;28;20040;-73
2022/04/14 01:36:09;;;;;;;37.15;19.75;;;;;;;8.48;100.00;102019.94;5194051;28;20426;-73
2022/04/14 01:38:40;;;;;;;142.55;23.40;;;;;;;8.39;100.00;102014.47;5190724;28;20032;-73
2022/04/14 01:41:10;;;;;;;41.33;21.48;;;;;;;8.32;100.00;102016.72;5204549;28;20021;-73
2022/04/14 01:43:43;;;;;;;35.45;20.67;;;;;;;8.29;100.00;102011.66;5204614;28;20017;-74
2022/04/14 01:46:14;;;;;;;48.47;26.17;;;;;;;8.41;100.00;102016.03;5203949;28;20022;-73
2022/04/14 01:48:44;;;;;;;49.20;26.42;;;;;;;8.52;100.00;102015.16;5203945;28;20036;-74
2022/04/14 01:51:15;;;;;;;48.10;27.45;;;;;;;8.49;100.00;102010.94;5204312;28;20032;-73
2022/04/14 01:53:46;;;;;;;44.65;24.38;;;;;;;8.44;100.00;102002.44;5204103;28;20036;-73
2022/04/14 01:56:18;;;;;;;50.75;25.77;;;;;;;8.39;100.00;102018.00;5206473;28;20028;-73
2022/04/14 01:58:50;;;;;;;57.53;29.27;;;;;;;8.39;100.00;102020.66;5199487;28;20021;-73
2022/04/14 02:01:22;;;;;;;48.10;26.65;;;;;;;8.38;100.00;102026.97;5194215;28;20061;-73
2022/04/14 02:03:54;;;;;;;51.40;26.95;;;;;;;8.34;100.00;102032.69;5200948;28;20458;-73
2022/04/14 02:06:25;;;;;;;53.38;26.00;;;;;;;8.34;100.00;102033.53;5203887;28;20025;-73
2022/04/14 02:08:55;;;;;;;45.65;24.73;;;;;;;8.31;100.00;102031.94;5203860;28;20421;-73
2022/04/14 02:11:26;;;;;;;47.65;24.70;;;;;;;8.26;100.00;102036.78;5203755;28;20380;-72
2022/04/14 02:13:57;;;;;;;54.03;25.42;;;;;;;8.20;100.00;102036.44;5203504;28;20025;-73
2022/04/14 02:16:28;;;;;;;53.25;26.00;;;;;;;8.20;100.00;102034.63;5203605;28;20458;-73
2022/04/14 02:18:59;;;;;;;50.58;24.77;;;;;;;8.20;100.00;102039.13;5204240;28;20065;-72
2022/04/14 02:21:29;;;;;;;39.50;22.13;;;;;;;8.23;100.00;102038.84;5203620;28;20112;-73
2022/04/14 02:24:00;;;;;;;45.03;22.30;;;;;;;8.24;100.00;102027.22;5203919;28;20463;-72
2022/04/14 02:26:30;;;;;;;107.55;22.13;;;;;;;8.20;100.00;102034.63;5202984;28;20033;-73
2022/04/14 02:29:01;;;;;;;262.85;26.70;;;;;;;8.13;100.00;102030.72;5203695;28;20471;-72
2022/04/14 02:31:31;;;;;;;114.95;25.27;;;;;;;8.10;100.00;102024.78;5203451;28;20040;-72
2022/04/14 02:34:02;;;;;;;47.88;24.00;;;;;;;8.09;100.00;102021.25;5203622;28;20486;-73
2022/04/14 02:36:32;;;;;;;88.53;29.48;;;;;;;8.09;100.00;102026.59;5195244;28;20034;-73
2022/04/14 02:39:04;;;;;;;92.95;31.38;;;;;;;8.13;100.00;102024.50;5196734;28;20109;-73
2022/04/14 02:41:34;;;;;;;131.15;26.35;;;;;;;8.14;100.00;102020.91;5202595;28;20144;-73
2022/04/14 02:44:05;;;;;;;127.53;23.77;;;;;;;8.10;100.00;102017.59;5207244;28;20490;-75
2022/04/14 02:46:35;;;;;;;55.97;25.67;;;;;;;8.04;100.00;102018.09;5207684;28;20029;-73
2022/04/14 02:49:05;;;;;;;60.22;27.33;;;;;;;8.13;100.00;102027.19;5207450;28;20549;-73
2022/04/14 02:51:36;;;;;;;116.88;34.42;;;;;;;8.18;100.00;102027.69;5207383;28;20032;-72
2022/04/14 02:54:06;;;;;;;100.50;31.30;;;;;;;8.17;100.00;102028.66;5207497;28;20393;-72
2022/04/14 02:56:37;;;;;;;80.10;28.45;;;;;;;8.17;100.00;102036.69;5207400;28;20029;-72
2022/04/14 02:59:07;;;;;;;67.95;27.08;;;;;;;8.18;100.00;102033.91;5206437;28;20028;-72
2022/04/14 03:01:38;;;;;;;72.65;27.40;;;;;;;8.26;100.00;102035.94;5201624;28;20018;-72
2022/04/14 03:04:08;;;;;;;117.78;35.80;;;;;;;8.27;100.00;102043.00;5207313;28;20032;-72
2022/04/14 03:06:39;;;;;;;113.65;29.48;;;;;;;8.19;100.00;102035.59;5207163;28;20021;-72
2022/04/14 03:09:09;;;;;;;79.75;28.83;;;;;;;8.09;100.00;102047.13;5207514;28;20069;-72
2022/04/14 03:11:40;;;;;;;70.05;28.27;;;;;;;8.04;100.00;102034.97;5207227;28;20402;-72
2022/04/14 03:14:10;;;;;;;71.13;28.15;;;;;;;8.02;100.00;102034.22;5207005;28;20044;-72
2022/04/14 03:16:41;;;;;;;55.53;26.45;;;;;;;8.00;100.00;102041.53;5207333;28;20527;-72
2022/04/14 03:19:11;;;;;;;64.90;28.67;;;;;;;8.02;100.00;102036.91;5207121;28;20429;-72
2022/04/14 03:21:42;;;;;;;57.08;27.40;;;;;;;8.02;100.00;102039.59;5207201;28;20025;-72
2022/04/14 03:24:12;;;;;;;81.28;33.60;;;;;;;8.04;100.00;102036.81;5206866;28;20053;-72
2022/04/14 03:26:43;;;;;;;166.35;32.60;;;;;;;8.01;100.00;102037.88;5206439;28;20029;-72
2022/04/14 03:29:13;;;;;;;135.98;30.42;;;;;;;7.93;100.00;102044.78;5207301;28;20036;-72
2022/04/14 03:31:43;;;;;;;125.63;31.13;;;;;;;7.85;100.00;102044.56;5206704;28;20494;-72
2022/04/14 03:34:14;;;;;;;149.85;31.73;;;;;;;7.77;100.00;102046.00;5206692;28;20375;-72
2022/04/14 03:36:44;;;;;;;140.60;30.70;;;;;;;7.70;100.00;102044.78;5205046;28;20518;-72
2022/04/14 03:39:16;;;;;;;118.53;31.75;;;;;;;7.65;100.00;102044.28;5195842;28;20032;-72
2022/04/14 03:41:46;;;;;;;79.45;30.58;;;;;;;7.62;100.00;102035.63;5206434;28;20356;-72
2022/04/14 03:44:16;;;;;;;64.05;30.30;;;;;;;7.62;100.00;102036.50;5206449;28;20037;-72
2022/04/14 03:46:47;;;;;;;125.00;34.25;;;;;;;7.61;100.00;102045.47;5206592;28;20021;-72
2022/04/14 03:49:17;;;;;;;300.60;37.08;;;;;;;7.50;100.00;102040.97;5207271;28;20052;-72
2022/04/14 03:51:48;;;;;;;236.25;30.92;;;;;;;7.33;100.00;102035.19;5206106;28;20114;-72
2022/04/14 03:54:18;;;;;;;131.38;27.17;;;;;;;7.23;100.00;102035.06;5206233;28;20030;-72
2022/04/14 03:56:49;;;;;;;185.88;28.20;;;;;;;7.16;100.00;102039.13;5206589;28;20033;-72
2022/04/14 03:59:20;;;;;;;180.73;26.55;;;;;;;7.09;100.00;102041.44;5204789;28;20304;-72
2022/04/14 04:01:51;;;;;;;147.52;25.88;;;;;;;7.00;100.00;102037.63;5204577;28;20029;-72
2022/04/14 04:04:21;;;;;;;169.48;25.15;;;;;;;6.88;100.00;102035.88;5198362;28;20044;-72
2022/04/14 04:06:51;;;;;;;131.77;25.63;;;;;;;6.84;100.00;102045.06;5206013;28;20064;-72
2022/04/14 04:09:22;;;;;;;124.38;26.83;;;;;;;6.80;100.00;102040.06;5206247;28;20025;-72
2022/04/14 04:11:53;;;;;;;102.40;28.42;;;;;;;6.76;100.00;102042.09;5205917;28;20033;-71
2022/04/14 04:14:24;;;;;;;107.35;31.48;;;;;;;6.81;100.00;102049.75;5205754;28;20026;-71
2022/04/14 04:16:54;;;;;;;73.53;28.38;;;;;;;6.83;100.00;102046.03;5205582;28;20043;-71
2022/04/14 04:19:25;;;;;;;53.90;26.48;;;;;;;6.90;100.00;102051.75;5205976;28;20017;-72
2022/04/14 04:21:55;;;;;;;58.60;27.77;;;;;;;6.99;100.00;102057.25;5205783;28;20034;-71
2022/04/14 04:24:26;;;;;;;88.65;30.63;;;;;;;6.99;100.00;102057.25;5205701;28;20023;-72
2022/04/14 04:26:56;;;;;;;83.45;30.95;;;;;;;6.99;100.00;102057.25;5205719;28;20474;-72
2022/04/14 04:29:27;;;;;;;106.30;30.25;;;;;;;7.00;100.00;102055.44;5205408;28;20049;-71
2022/04/14 04:31:57;;;;;;;82.03;28.90;;;;;;;6.98;100.00;102057.38;5205618;28;20029;-72
2022/04/14 04:34:28;;;;;;;168.40;31.48;;;;;;;6.97;100.00;102056.50;5205599;28;20108;-72
2022/04/14 04:36:58;;;;;;;54.15;28.08;;;;;;;6.98;100.00;102060.91;5203452;28;20029;-72
2022/04/14 04:39:29;;;;;;;71.68;28.05;;;;;;;6.97;100.00;102061.84;5194398;28;20029;-72
2022/04/14 04:41:59;;;;;;;59.92;27.83;;;;;;;7.01;100.00;102067.81;5205698;28;20017;-72
2022/04/14 04:44:30;;;;;;;125.07;29.90;;;;;;;7.04;100.00;102064.94;5205101;28;20029;-71
2022/04/14 04:47:00;;;;;;;104.90;30.95;;;;;;;7.09;100.00;102075.28;5205423;28;20021;-72
2022/04/14 04:49:30;;;;;;;159.23;33.17;;;;;;;7.10;100.00;102074.28;5205340;28;20047;-72
2022/04/14 04:52:01;;;;;;;95.55;28.83;;;;;;;7.07;100.00;102078.03;5205087;28;20071;-72
2022/04/14 04:54:32;;;;;;;120.38;29.08;;;;;;;7.05;100.00;102085.31;5205105;28;20033;-72
2022/04/14 04:57:03;;;;;;;81.22;27.23;;;;;;;6.97;100.00;102085.84;5205292;28;20030;-72
2022/04/14 04:59:34;;;;;;;119.45;27.45;;;;;;;6.90;100.00;102081.94;5200721;28;20053;-72
2022/04/14 05:02:04;;;;;;;89.18;27.25;;;;;;;6.82;100.00;102091.47;5201972;28;20083;-72
2022/04/14 05:04:35;;;;;;;86.28;24.83;;;;;;;6.71;100.00;102093.09;5196538;28;20036;-72
2022/04/14 05:07:05;;;;;;;94.47;22.90;;;;;;;6.63;100.00;102091.97;5208760;28;20033;-72
2022/04/14 05:09:36;;;;;;;163.48;26.77;;;;;;;6.58;100.00;102092.28;5204955;28;20375;-72
2022/04/14 05:12:07;;;;;;;66.82;24.50;;;;;;;6.54;100.00;102098.81;5204913;28;20025;-72
2022/04/14 05:14:37;;;;;;;78.45;25.58;;;;;;;6.52;100.00;102098.03;5204733;28;20556;-72
2022/04/14 05:17:08;;;;;;;73.68;26.33;;;;;;;6.54;100.00;102100.63;5204602;28;20386;-72
2022/04/14 05:19:38;;;;;;;59.47;24.67;;;;;;;6.56;100.00;102107.53;5204895;28;20092;-72
2022/04/14 05:22:09;;;;;;;70.88;28.42;;;;;;;6.59;100.00;102104.66;5204633;28;20100;-72
2022/04/14 05:24:39;;;;;;;70.90;28.10;;;;;;;6.62;100.00;102108.91;5204604;28;20022;-72
2022/04/14 05:27:09;;;;;;;58.45;26.02;;;;;;;6.62;100.00;102114.25;5204928;28;20393;-72
2022/04/14 05:29:40;;;;;;;64.07;26.27;;;;;;;6.64;100.00;102107.00;5204154;28;20091;-72
2022/04/14 05:32:10;;;;;;;67.30;25.65;;;;;;;6.65;100.00;102120.22;5204502;28;20021;-71
2022/04/14 05:34:41;;;;;;;83.40;25.83;;;;;;;6.73;100.00;102122.34;5204370;28;20030;-72
2022/04/14 05:37:11;;;;;;;102.60;28.73;;;;;;;6.81;100.00;102119.09;5203854;28;20071;-72
2022/04/14 05:39:42;;;;;;;75.78;27.02;;;;;;;6.88;100.00;102131.91;5204356;28;20112;-72
2022/04/14 05:42:12;;;;;;;76.40;28.00;;;;;;;6.98;100.00;102127.59;5202809;28;20022;-72
2022/04/14 05:44:43;;;;;;;84.53;27.95;;;;;;;7.08;100.00;102121.56;5204255;28;20018;-72
2022/04/14 05:47:13;;;;;;;148.48;27.58;;;;;;;7.11;100.00;102116.88;5204140;28;20029;-72
2022/04/14 05:49:44;;;;;;;123.93;27.73;;;;;;;7.12;100.00;102117.72;5204266;28;20442;-72
2022/04/14 05:52:14;;;;;;;144.18;28.20;;;;;;;7.14;100.00;102118.47;5204561;28;20029;-72
2022/04/14 05:54:46;;;;;;;92.28;26.70;;;;;;;7.25;100.00;102123.88;5203650;28;20049;-71
2022/04/14 05:57:17;;;;;;;96.32;26.05;;;;;;;7.38;100.00;102124.69;5204226;28;20026;-72
2022/04/14 05:59:47;;;;;;;94.07;26.13;;;;;;;7.50;100.00;102130.91;5203884;28;20025;-72
2022/04/14 06:02:18;;;;;;;72.60;26.27;;;;;;;7.65;100.00;102132.41;5203952;28;20101;-72
2022/04/14 06:04:49;;;;;;;79.35;27.35;;;;;;;7.89;100.00;102124.38;5191158;28;20026;-72
2022/04/14 06:07:19;;;;;;;97.50;28.42;;;;;;;8.09;100.00;102130.84;5204119;28;21068;-72
2022/04/14 06:09:50;;;;;;;123.75;29.30;;;;;;;8.26;100.00;102138.38;5203719;28;20102;-72
2022/04/14 06:12:20;;;;;;;77.90;28.02;;;;;;;8.48;100.00;102142.97;5204181;28;20032;-72
2022/04/14 06:14:51;;;;;;;78.63;27.40;;;;;;;8.74;100.00;102137.34;5203729;28;20029;-72
2022/04/14 06:17:21;;;;;;;84.10;25.15;;;;;;;8.98;100.00;102143.38;5203980;28;20359;-72
2022/04/14 06:19:52;;;;;;;69.47;24.10;;;;;;;9.17;100.00;102139.22;5203804;28;20056;-72
2022/04/14 06:22:23;;;;;;;67.35;23.55;;;;;;;9.42;100.00;102133.53;5201289;28;20475;-72
2022/04/14 06:24:57;;;;;;;52.92;23.08;;;;;;;9.63;100.00;102140.75;5203722;28;20029;-72
2022/04/14 06:27:28;;;;;;;88.32;21.58;;;;;;;9.78;100.00;102137.63;5203650;28;20025;-72
2022/04/14 06:29:59;;;;;;;39.17;20.23;;;;;;;10.00;100.00;102141.19;5203173;28;20424;-72
2022/04/14 06:32:30;;;;;;;42.97;21.45;;;;;;;10.12;100.00;102143.66;5203458;28;20382;-72
2022/04/14 06:35:01;;;;;;;34.00;22.00;;;;;;;10.41;100.00;102140.31;5202492;28;20112;-72
2022/04/14 06:37:32;;;;;;;35.47;21.55;;;;;;;10.54;100.00;102138.28;5196913;28;20182;-72
2022/04/14 06:40:03;;;;;;;39.92;23.45;;;;;;;10.74;100.00;102147.22;5198245;28;20021;-71
2022/04/14 06:42:34;;;;;;;38.92;22.45;;;;;;;10.92;100.00;102146.59;5199077;28;20070;-71
2022/04/14 06:45:05;;;;;;;63.40;21.85;;;;;;;10.97;100.00;102145.19;5203252;28;20033;-71
2022/04/14 06:47:35;;;;;;;57.97;21.55;;;;;;;11.09;100.00;102143.25;5203450;28;20105;-71
2022/04/14 06:50:06;;;;;;;30.33;19.80;;;;;;;11.35;100.00;102144.44;5203955;28;20021;-72
2022/04/14 06:52:38;;;;;;;41.38;22.23;;;;;;;11.61;100.00;102147.41;5203386;28;20065;-72
2022/04/14 06:55:09;;;;;;;42.70;22.85;;;;;;;11.77;100.00;102148.69;5203484;28;20033;-71
2022/04/14 06:57:39;;;;;;;42.20;22.33;;;;;;;12.12;100.00;102151.63;5203516;28;20040;-71
2022/04/14 07:00:10;;;;;;;36.60;21.00;;;;;;;12.58;100.00;102157.19;5194538;28;20476;-72
2022/04/14 07:02:59;;;;;;;32.60;20.60;;;;;;;13.37;100.00;102151.25;5203372;28;20466;-72
2022/04/14 07:05:30;;;;;;;29.08;19.27;;;;;;;14.14;100.00;102153.25;5191704;28;20037;-72
2022/04/14 07:08:01;;;;;;;29.83;20.42;;;;;;;14.51;100.00;102149.50;5203559;28;20025;-72
2022/04/14 07:10:31;;;;;;;24.77;18.88;;;;;;;15.28;100.00;102156.53;5203091;28;20408;-72
2022/04/14 07:13:01;;;;;;;27.45;18.45;;;;;;;15.87;100.00;102147.53;5203405;28;20025;-72
2022/04/14 07:15:32;;;;;;;23.90;17.27;;;;;;;16.26;100.00;102147.63;5203043;28;20136;-72
2022/04/14 07:18:03;;;;;;;24.50;18.50;;;;;;;16.15;100.00;102148.00;5202890;28;20428;-72
2022/04/14 07:20:33;;;;;;;25.00;18.50;;;;;;;16.50;100.00;102144.84;5203259;28;20099;-73
2022/04/14 07:23:05;;;;;;;25.73;18.35;;;;;;;16.40;100.00;102152.34;5203236;28;20029;-73
2022/04/14 07:25:36;;;;;;;24.52;17.45;;;;;;;16.97;100.00;102152.19;5202902;28;20087;-73
2022/04/14 07:28:07;;;;;;;24.98;18.33;;;;;;;17.17;100.00;102151.72;5203798;28;20518;-73
2022/04/14 07:30:39;;;;;;;21.38;15.57;;;;;;;18.01;100.00;102155.38;5206395;28;20048;-73
2022/04/14 07:33:10;;;;;;;25.63;17.25;;;;;;;17.89;100.00;102155.00;5206918;28;20101;-73
2022/04/14 07:35:40;;;;;;;23.48;15.88;;;;;;;18.60;100.00;102163.63;5206770;28;20033;-73
2022/04/14 07:38:11;;;;;;;21.58;15.35;;;;;;;18.86;100.00;102160.44;5206868;28;20137;-73
2022/04/14 07:40:41;;;;;;;23.00;15.85;;;;;;;18.57;100.00;102159.38;5201171;28;20025;-73
2022/04/14 07:43:12;;;;;;;26.90;17.48;;;;;;;18.41;100.00;102164.16;5206436;28;20042;-73
2022/04/14 07:45:42;;;;;;;17.77;13.73;;;;;;;18.80;100.00;102170.22;5206548;28;20033;-73
2022/04/14 07:48:13;;;;;;;27.67;17.50;;;;;;;18.72;100.00;102166.72;5206487;28;20025;-73
2022/04/14 07:50:44;;;;;;;26.70;16.35;;;;;;;19.07;100.00;102167.81;5206829;28;20033;-73
2022/04/14 07:53:14;;;;;;;27.13;17.33;;;;;;;19.15;100.00;102160.41;5206470;28;20391;-73
2022/04/14 07:55:45;;;;;;;28.80;16.98;;;;;;;19.47;100.00;102162.84;5206324;28;20471;-73
2022/04/14 07:58:15;;;;;;;26.25;16.55;;;;;;;18.84;100.00;102159.81;5206472;28;20021;-73
2022/04/14 08:00:49;;;;;;;24.50;16.60;;;;;;;19.21;100.00;102160.66;5205945;28;20071;-73
2022/04/14 08:03:20;;;;;;;26.87;16.43;;;;;;;19.15;100.00;102162.28;5206899;28;20021;-73
2022/04/14 08:05:51;;;;;;;23.08;14.80;;;;;;;19.00;100.00;102161.47;5202738;28;20287;-73
2022/04/14 08:08:22;;;;;;;24.08;14.27;;;;;;;19.33;100.00;102157.28;5206148;28;20017;-73
2022/04/14 08:10:53;;;;;;;19.77;13.50;;;;;;;19.93;100.00;102155.16;5205976;28;20181;-73
2022/04/14 08:13:25;;;;;;;26.83;13.63;;;;;;;19.95;100.00;102157.69;5206468;28;20120;-74
2022/04/14 08:16:01;;;;;;;19.70;11.25;;;;;;;20.71;100.00;102150.47;5205802;28;20108;-73
2022/04/14 08:18:33;;;;;;;16.70;10.82;;;;;;;20.91;100.00;102158.75;5205446;28;20038;-73
2022/04/14 08:21:04;;;;;;;16.63;10.82;;;;;;;20.42;100.00;102162.44;5205948;28;20040;-73
2022/04/14 08:23:39;;;;;;;21.20;11.52;;;;;;;20.04;100.00;102162.81;5205808;28;20026;-73
2022/04/14 08:26:10;;;;;;;21.08;10.93;;;;;;;20.39;100.00;102155.50;5205484;28;20027;-73
2022/04/14 08:28:41;;;;;;;21.92;12.35;;;;;;;20.21;100.00;102155.16;5205417;28;20039;-73
2022/04/14 08:31:12;;;;;;;17.63;10.50;;;;;;;19.25;100.00;102159.25;5205769;28;20033;-73
2022/04/14 08:33:43;;;;;;;18.08;10.80;;;;;;;20.00;100.00;102156.06;5205710;28;20397;-73
2022/04/14 08:36:16;;;;;;;14.65;9.23;;;;;;;20.55;100.00;102157.09;5198630;28;20049;-73
2022/04/14 08:38:48;;;;;;;16.23;9.98;;;;;;;20.17;100.00;102167.50;5205349;28;20100;-73
2022/04/14 08:41:22;;;;;;;18.15;10.85;;;;;;;20.35;100.00;102167.84;5193068;28;20022;-73
2022/04/14 08:44:13;;;;;;;18.60;10.90;;;;;;;19.84;100.00;102162.63;5198814;28;20368;-73
2022/04/14 08:46:43;;;;;;;16.23;10.48;;;;;;;20.52;100.00;102162.09;5205487;28;20044;-73
2022/04/14 08:49:16;;;;;;;19.05;11.77;;;;;;;20.82;100.00;102163.53;5205347;28;20022;-72
2022/04/14 08:51:47;;;;;;;18.77;10.18;;;;;;;20.43;100.00;102162.25;5204837;28;20013;-73
2022/04/14 08:54:20;;;;;;;16.77;9.55;;;;;;;20.09;100.00;102152.16;5205106;28;20502;-72
2022/04/14 08:56:51;;;;;;;12.82;7.95;;;;;;;20.48;100.00;102153.47;5205247;28;20052;-73
2022/04/14 08:59:22;;;;;;;15.57;9.00;;;;;;;20.53;100.00;102155.59;5205075;28;20033;-73
2022/04/14 09:01:53;;;;;;;12.63;7.07;;;;;;;21.60;100.00;102158.59;5204960;28;20025;-73
2022/04/14 09:04:23;;;;;;;13.05;6.57;;;;;;;21.56;100.00;102154.59;5204766;28;20505;-73
2022/04/14 09:06:54;;;;;;;12.73;5.90;;;;;;;21.42;100.00;102148.25;5201592;28;20134;-73
2022/04/14 09:09:24;;;;;;;12.85;7.05;;;;;;;20.59;100.00;102143.94;5205049;28;20030;-73
2022/04/14 09:11:55;;;;;;;12.25;6.22;;;;;;;21.40;100.00;102149.53;5204629;28;20022;-73
2022/04/14 09:14:25;;;;;;;10.38;6.43;;;;;;;20.60;100.00;102151.06;5204525;28;20033;-73
2022/04/14 09:16:56;;;;;;;8.27;4.70;;;;;;;21.08;100.00;102159.25;5204487;28;20033;-73
2022/04/14 09:19:29;;;;;;;6.82;3.67;;;;;;;21.14;100.00;102164.75;5204759;28;20121;-73
2022/04/14 09:22:15;;;;;;;5.35;3.20;;;;;;;21.05;100.00;102154.22;5204784;28;20071;-73
2022/04/14 09:24:49;;;;;;;7.80;4.43;;;;;;;22.18;87.51;102147.91;5204297;28;20059;-73
2022/04/14 09:27:37;;;;;;;9.32;5.30;;;;;;;22.61;84.68;102143.84;5204540;28;20037;-73
2022/04/14 09:30:09;;;;;;;9.75;4.43;;;;;;;21.34;99.67;102143.00;5204678;28;20025;-73
2022/04/14 09:32:43;;;;;;;8.30;4.82;;;;;;;20.71;100.00;102136.84;5203227;28;20037;-73
2022/04/14 09:35:31;;;;;;;7.53;3.97;;;;;;;21.02;100.00;102138.25;5204212;28;20059;-73
2022/04/14 09:38:04;;;;;;;8.88;4.43;;;;;;;19.72;100.00;102131.50;5204382;28;20027;-73
2022/04/14 09:40:35;;;;;;;9.35;4.60;;;;;;;20.08;100.00;102112.34;5203842;28;20403;-73
2022/04/14 09:43:06;;;;;;;13.18;5.32;;;;;;;20.49;100.00;102117.03;5201606;28;20033;-73
2022/04/14 09:45:37;;;;;;;8.93;4.70;;;;;;;21.10;100.00;102116.25;5204005;28;20084;-73
2022/04/14 09:50:58;;;;;;;7.38;4.65;;;;;;;20.57;100.00;102108.66;5203817;28;20087;-73
2022/04/14 09:53:30;;;;;;;9.95;4.80;;;;;;;21.05;100.00;102102.38;5202743;28;20049;-73
2022/04/14 09:56:00;;;;;;;7.03;4.65;;;;;;;21.27;100.00;102103.88;5204071;28;20021;-73
2022/04/14 09:58:31;;;;;;;12.73;5.57;;;;;;;20.80;100.00;102099.34;5203610;28;20159;-73
2022/04/14 10:01:02;;;;;;;10.65;5.70;;;;;;;20.65;100.00;102100.31;5199817;28;20029;-73
2022/04/14 10:03:34;;;;;;;11.15;5.40;;;;;;;20.81;100.00;102104.59;5203886;28;20547;-73
2022/04/14 10:06:06;;;;;;;13.50;4.45;;;;;;;21.68;96.73;102098.28;5203597;28;20025;-73
2022/04/14 10:08:50;;;;;;;9.25;5.18;;;;;;;21.40;100.00;102114.88;5200980;28;20022;-73
2022/04/14 10:11:40;;;;;;;14.93;5.53;;;;;;;21.17;100.00;102111.63;5202593;28;20026;-73
2022/04/14 10:14:12;;;;;;;11.63;4.78;;;;;;;21.16;97.51;102112.69;5203469;28;20475;-73
2022/04/14 10:16:45;;;;;;;11.85;4.78;;;;;;;20.39;100.00;102121.97;5203995;28;20031;-73
2022/04/14 10:19:16;;;;;;;8.55;4.03;;;;;;;20.63;100.00;102128.81;5203442;28;20048;-73
2022/04/14 10:21:47;;;;;;;10.98;4.30;;;;;;;21.25;96.00;102133.28;5203868;28;20414;-73
2022/04/14 10:24:19;;;;;;;9.40;4.32;;;;;;;21.16;99.28;102131.78;5203418;28;20097;-73
2022/04/14 10:26:50;;;;;;;9.77;3.95;;;;;;;21.12;97.57;102138.69;5204029;28;20041;-73
2022/04/14 10:29:22;;;;;;;8.48;3.80;;;;;;;21.11;100.00;102137.00;5203667;28;20044;-72
2022/04/14 10:31:54;;;;;;;7.85;4.70;;;;;;;20.78;100.00;102147.78;5203343;28;20119;-73
2022/04/14 10:34:25;;;;;;;13.90;3.38;;;;;;;21.12;97.61;102142.25;5202443;28;20076;-73
2022/04/14 10:36:57;;;;;;;9.93;4.43;;;;;;;20.95;100.00;102149.97;5203448;28;20018;-73
2022/04/14 10:39:29;;;;;;;7.72;4.45;;;;;;;21.07;100.00;102152.09;5199399;28;20394;-73
2022/04/14 10:42:01;;;;;;;12.18;5.03;;;;;;;21.31;100.00;102157.03;5200613;28;20027;-73
2022/04/14 10:44:45;;;;;;;15.70;5.53;;;;;;;21.49;100.00;102151.00;5191981;28;20022;-73
2022/04/14 10:47:51;;;;;;;13.80;5.97;;;;;;;21.78;92.63;102148.94;5203815;28;20037;-73
2022/04/14 10:50:37;;;;;;;12.05;5.60;;;;;;;21.12;100.00;102144.16;5203083;28;20156;-73
2022/04/14 10:53:09;;;;;;;15.23;5.90;;;;;;;20.43;100.00;102143.19;5203473;28;20082;-73
2022/04/14 10:55:55;;;;;;;9.30;4.65;;;;;;;19.72;100.00;102149.72;5203494;28;20021;-72
2022/04/14 10:58:26;;;;;;;14.77;5.45;;;;;;;19.45;100.00;102151.31;5203336;28;20036;-73
2022/04/14 11:00:57;;;;;;;16.13;5.53;;;;;;;19.64;100.00;102156.16;5200622;28;20025;-73
2022/04/14 11:04:04;;;;;;;11.38;6.53;;;;;;;20.09;100.00;102143.97;5204366;28;20029;-72
2022/04/14 11:06:52;;;;;;;13.63;6.00;;;;;;;20.42;100.00;102136.00;5206948;28;20072;-72
2022/04/14 11:09:42;;;;;;;14.02;6.75;;;;;;;21.10;100.00;102140.78;5200558;28;20029;-73
2022/04/14 11:12:18;;;;;;;14.68;6.00;;;;;;;21.35;100.00;102136.50;5207288;28;20065;-73
2022/04/14 11:14:59;;;;;;;18.25;7.72;;;;;;;21.33;100.00;102135.84;5200606;28;20022;-73
2022/04/14 11:17:48;;;;;;;12.73;7.18;;;;;;;20.85;100.00;102145.94;5207030;28;20072;-73
2022/04/14 11:20:21;;;;;;;14.82;7.63;;;;;;;20.87;100.00;102136.50;5207596;28;20094;-73
2022/04/14 11:23:20;;;;;;;19.20;8.45;;;;;;;20.62;100.00;102130.72;5207036;28;20021;-73
2022/04/14 11:25:53;;;;;;;16.67;8.43;;;;;;;19.88;100.00;102136.69;5205354;28;20041;-73
2022/04/14 11:28:27;;;;;;;20.35;8.80;;;;;;;19.49;100.00;102136.28;5207037;28;20025;-73
2022/04/14 11:30:59;;;;;;;17.33;8.25;;;;;;;18.84;100.00;102146.22;5207128;28;20034;-73
2022/04/14 11:33:30;;;;;;;14.57;8.43;;;;;;;18.74;100.00;102143.78;5206880;28;20029;-73